createdAt,value
2019-05-19T00:01:58.922Z,7.57
2019-05-19T00:04:27.296Z,8.07
2019-05-19T00:06:55.716Z,8.60
2019-05-19T00:09:24.097Z,8.30
2019-05-19T00:11:52.491Z,7.77
2019-05-19T00:14:20.869Z,8.17
2019-05-19T00:16:49.274Z,8.30
2019-05-19T00:19:26.375Z,8.37
2019-05-19T00:21:47.748Z,8.17
2019-05-19T00:24:16.175Z,8.00
2019-05-19T00:26:44.527Z,8.30
2019-05-19T00:29:12.908Z,8.57
2019-05-19T00:31:41.337Z,7.93
2019-05-19T00:34:09.718Z,8.70
2019-05-19T00:36:38.088Z,8.80
2019-05-19T00:39:06.629Z,7.90
2019-05-19T00:41:35.022Z,8.50
2019-05-19T00:44:03.416Z,8.37
2019-05-19T00:46:31.793Z,9.47
2019-05-19T00:49:00.204Z,9.27
2019-05-19T00:51:28.581Z,9.10
2019-05-19T00:53:56.963Z,9.97
2019-05-19T00:56:25.347Z,7.93
2019-05-19T00:58:54.043Z,8.97
2019-05-19T01:01:22.410Z,9.97
2019-05-19T01:03:50.803Z,9.30
2019-05-19T01:06:19.243Z,9.63
2019-05-19T01:08:47.698Z,9.63
2019-05-19T01:11:16.077Z,10.20
2019-05-19T01:13:44.544Z,10.20
2019-05-19T01:16:12.935Z,10.40
2019-05-19T01:18:41.320Z,9.83
2019-05-19T01:21:09.722Z,10.47
2019-05-19T01:23:38.113Z,10.17
2019-05-19T01:26:06.508Z,10.20
2019-05-19T01:28:34.888Z,11.20
2019-05-19T01:31:03.323Z,11.10
2019-05-19T01:33:31.893Z,11.10
2019-05-19T01:36:00.863Z,11.20
2019-05-19T01:38:29.256Z,11.10
2019-05-19T01:40:57.639Z,11.23
2019-05-19T01:43:26.030Z,12.00
2019-05-19T01:45:54.451Z,11.07
2019-05-19T01:48:22.832Z,12.47
2019-05-19T01:50:51.223Z,12.80
2019-05-19T01:53:19.627Z,11.37
2019-05-19T01:55:48.030Z,13.10
2019-05-19T01:58:16.410Z,11.47
2019-05-19T02:00:44.810Z,12.20
2019-05-19T02:03:13.220Z,11.93
2019-05-19T02:05:41.619Z,12.27
2019-05-19T02:08:10.001Z,12.53
2019-05-19T02:10:38.390Z,12.17
2019-05-19T02:13:06.780Z,11.40
2019-05-19T02:15:35.201Z,11.13
2019-05-19T02:18:03.602Z,12.87
2019-05-19T02:20:33.585Z,12.73
2019-05-19T02:23:02.037Z,12.60
2019-05-19T02:25:30.400Z,12.13
2019-05-19T02:27:58.802Z,12.93
2019-05-19T02:30:27.193Z,14.03
2019-05-19T02:32:55.589Z,12.70
2019-05-19T02:35:23.969Z,12.73
2019-05-19T02:37:52.385Z,10.83
2019-05-19T02:40:20.771Z,10.67
2019-05-19T02:42:49.630Z,13.60
2019-05-19T02:45:18.057Z,12.07
2019-05-19T02:47:46.429Z,9.77
2019-05-19T02:50:14.811Z,12.40
2019-05-19T02:52:44.412Z,9.27
2019-05-19T02:55:12.795Z,10.77
2019-05-19T02:57:41.346Z,9.87
2019-05-19T03:00:10.076Z,10.33
2019-05-19T03:02:38.449Z,8.83
2019-05-19T03:05:06.883Z,10.57
2019-05-19T03:07:35.262Z,10.20
2019-05-19T03:10:04.571Z,9.87
2019-05-19T03:12:32.956Z,9.23
2019-05-19T03:15:01.386Z,9.60
2019-05-19T03:17:29.784Z,8.50
2019-05-19T03:19:58.155Z,8.40
2019-05-19T03:22:26.578Z,9.77
2019-05-19T03:24:54.944Z,8.70
2019-05-19T03:27:23.324Z,8.37
2019-05-19T03:29:56.193Z,10.17
2019-05-19T03:32:26.224Z,10.93
2019-05-19T03:34:54.606Z,10.73
2019-05-19T03:37:23.000Z,10.57
2019-05-19T03:39:51.414Z,11.33
2019-05-19T03:42:19.789Z,12.00
2019-05-19T03:44:48.186Z,10.80
2019-05-19T03:47:16.611Z,12.10
2019-05-19T03:49:44.993Z,12.50
2019-05-19T03:52:13.359Z,12.23
2019-05-19T03:54:41.771Z,11.10
2019-05-19T03:57:10.211Z,11.80
2019-05-19T03:59:38.586Z,13.90
2019-05-19T04:02:06.985Z,13.90
2019-05-19T04:04:35.366Z,14.37
2019-05-19T04:07:03.750Z,13.53
2019-05-19T04:09:32.161Z,13.37
2019-05-19T04:12:00.542Z,12.53
2019-05-19T04:14:28.940Z,13.37
2019-05-19T04:16:57.329Z,13.27
2019-05-19T04:19:25.725Z,14.60
2019-05-19T04:21:54.126Z,14.43
2019-05-19T04:24:22.535Z,13.73
2019-05-19T04:26:50.907Z,13.77
2019-05-19T04:29:19.296Z,13.70
2019-05-19T04:31:47.738Z,15.20
2019-05-19T04:34:16.128Z,16.07
2019-05-19T04:36:44.509Z,14.50
2019-05-19T04:39:12.926Z,13.73
2019-05-19T04:41:41.309Z,14.50
2019-05-19T04:44:09.709Z,14.63
2019-05-19T04:46:38.170Z,15.27
2019-05-19T04:49:06.537Z,14.63
2019-05-19T04:51:34.917Z,15.43
2019-05-19T04:54:03.338Z,15.93
2019-05-19T04:56:31.726Z,15.00
2019-05-19T04:59:00.109Z,15.37
2019-05-19T05:01:28.502Z,14.40
2019-05-19T05:03:56.911Z,13.83
2019-05-19T05:06:25.303Z,14.77
2019-05-19T05:08:53.725Z,15.23
2019-05-19T05:11:22.105Z,14.60
2019-05-19T05:13:50.507Z,15.07
2019-05-19T05:16:18.910Z,13.60
2019-05-19T05:18:47.916Z,13.63
2019-05-19T05:21:16.373Z,14.20
2019-05-19T05:23:44.768Z,13.87
2019-05-19T05:26:13.170Z,14.10
2019-05-19T05:28:41.557Z,13.47
2019-05-19T05:31:09.966Z,12.80
2019-05-19T05:33:38.357Z,13.77
2019-05-19T05:36:06.735Z,13.53
2019-05-19T05:38:35.187Z,12.80
2019-05-19T05:41:03.577Z,12.10
2019-05-19T05:43:31.975Z,12.77
2019-05-19T05:46:00.408Z,12.17
2019-05-19T05:48:28.780Z,12.90
2019-05-19T05:50:57.171Z,12.73
2019-05-19T05:53:25.568Z,13.40
2019-05-19T05:55:53.997Z,12.60
2019-05-19T05:58:22.433Z,10.63
2019-05-19T06:00:50.817Z,11.73
2019-05-19T06:03:19.204Z,11.60
2019-05-19T06:05:47.608Z,11.37
2019-05-19T06:08:16.175Z,9.87
2019-05-19T06:10:44.598Z,11.43
2019-05-19T06:13:13.009Z,12.43
2019-05-19T06:15:41.455Z,10.43
2019-05-19T06:18:09.834Z,10.87
2019-05-19T06:20:38.239Z,10.80
2019-05-19T06:23:06.671Z,10.00
2019-05-19T06:25:35.116Z,10.70
2019-05-19T06:28:03.481Z,10.13
2019-05-19T06:30:31.866Z,9.30
2019-05-19T06:33:01.645Z,9.53
2019-05-19T06:35:30.029Z,10.20
2019-05-19T06:37:58.409Z,9.67
2019-05-19T06:40:26.796Z,9.87
2019-05-19T06:42:55.167Z,9.67
2019-05-19T06:45:23.637Z,8.53
2019-05-19T06:47:52.084Z,10.60
2019-05-19T06:50:20.484Z,10.37
2019-05-19T06:52:48.885Z,10.17
2019-05-19T06:55:17.273Z,9.80
2019-05-19T06:57:45.679Z,10.23
2019-05-19T07:00:14.133Z,9.67
2019-05-19T07:02:42.530Z,9.90
2019-05-19T07:05:10.909Z,9.63
2019-05-19T07:07:39.286Z,8.90
2019-05-19T07:10:08.001Z,9.37
2019-05-19T07:12:36.390Z,8.80
2019-05-19T07:15:05.918Z,9.17
2019-05-19T07:17:34.304Z,8.83
2019-05-19T07:20:02.707Z,9.07
2019-05-19T07:22:31.102Z,8.83
2019-05-19T07:24:59.497Z,9.27
2019-05-19T07:27:27.879Z,8.93
2019-05-19T07:29:56.321Z,8.87
2019-05-19T07:32:24.680Z,7.80
2019-05-19T07:34:53.057Z,8.30
2019-05-19T07:37:21.468Z,8.37
2019-05-19T07:39:49.839Z,8.53
2019-05-19T07:42:18.238Z,8.70
2019-05-19T07:44:46.671Z,7.77
2019-05-19T07:47:15.052Z,7.97
2019-05-19T07:49:43.475Z,7.90
2019-05-19T07:52:11.889Z,8.43
2019-05-19T07:54:40.256Z,7.47
2019-05-19T07:57:08.637Z,7.90
2019-05-19T07:59:37.041Z,7.53
2019-05-19T08:02:05.420Z,7.13
2019-05-19T08:04:33.827Z,7.77
2019-05-19T08:07:02.216Z,8.13
2019-05-19T08:09:30.601Z,7.67
2019-05-19T08:11:58.994Z,7.53
2019-05-19T08:14:27.368Z,7.27
2019-05-19T08:16:55.745Z,7.30
2019-05-19T08:19:24.162Z,7.30
2019-05-19T08:21:52.951Z,6.93
2019-05-19T08:24:21.330Z,6.90
2019-05-19T08:26:49.761Z,6.90
2019-05-19T08:29:18.254Z,6.43
2019-05-19T08:31:46.673Z,6.90
2019-05-19T08:34:15.146Z,7.00
2019-05-19T08:36:43.538Z,7.00
2019-05-19T08:39:11.930Z,7.00
2019-05-19T08:41:40.361Z,6.90
2019-05-19T08:44:08.741Z,6.73
2019-05-19T08:46:37.129Z,7.80
2019-05-19T08:49:05.561Z,6.80
2019-05-19T08:51:34.115Z,6.23
2019-05-19T08:54:13.862Z,6.50
2019-05-19T08:56:32.571Z,7.27
2019-05-19T08:59:00.996Z,7.00
2019-05-19T09:01:29.407Z,6.20
2019-05-19T09:03:58.178Z,6.60
2019-05-19T09:06:26.993Z,6.67
2019-05-19T09:08:55.403Z,5.97
2019-05-19T09:11:23.848Z,6.30
2019-05-19T09:13:52.229Z,6.60
2019-05-19T09:16:20.601Z,5.50
2019-05-19T09:18:49.114Z,6.60
2019-05-19T09:21:17.557Z,6.00
2019-05-19T09:23:45.947Z,6.27
2019-05-19T09:26:14.355Z,6.00
2019-05-19T09:28:42.756Z,5.93
2019-05-19T09:31:11.142Z,6.20
2019-05-19T09:33:39.546Z,5.33
2019-05-19T09:36:07.944Z,6.10
2019-05-19T09:38:36.375Z,6.43
2019-05-19T09:41:05.163Z,6.27
2019-05-19T09:43:33.549Z,6.57
2019-05-19T09:46:01.944Z,5.70
2019-05-19T09:48:30.367Z,5.50
2019-05-19T09:50:58.755Z,6.40
2019-05-19T09:53:28.833Z,6.47
2019-05-19T09:55:57.241Z,6.70
2019-05-19T09:58:25.707Z,6.33
2019-05-19T10:00:54.168Z,6.07
2019-05-19T10:03:22.541Z,6.20
2019-05-19T10:05:50.959Z,6.20
2019-05-19T10:08:22.142Z,5.70
2019-05-19T10:11:03.315Z,6.10
2019-05-19T10:13:31.706Z,6.03
2019-05-19T10:16:00.083Z,6.30
2019-05-19T10:18:28.536Z,6.30
2019-05-19T10:20:56.931Z,6.50
2019-05-19T10:23:25.291Z,5.97
2019-05-19T10:25:53.711Z,6.40
2019-05-19T10:28:22.096Z,6.03
2019-05-19T10:30:50.517Z,6.43
2019-05-19T10:33:18.905Z,6.47
2019-05-19T10:35:47.283Z,6.43
2019-05-19T10:38:17.810Z,6.00
2019-05-19T10:40:46.378Z,6.50
2019-05-19T10:43:14.799Z,6.07
2019-05-19T10:45:44.821Z,5.73
2019-05-19T10:48:13.195Z,5.87
2019-05-19T10:50:41.629Z,5.97
2019-05-19T10:53:10.017Z,5.80
2019-05-19T10:55:38.391Z,4.93
2019-05-19T10:58:06.823Z,5.43
2019-05-19T11:00:38.186Z,5.90
2019-05-19T11:03:06.564Z,5.03
2019-05-19T11:05:35.019Z,5.77
2019-05-19T11:08:03.400Z,5.43
2019-05-19T11:10:31.859Z,5.73
2019-05-19T11:13:00.416Z,5.20
2019-05-19T11:15:28.807Z,7.43
2019-05-19T11:17:57.221Z,5.30
2019-05-19T11:20:25.638Z,5.17
2019-05-19T11:22:54.027Z,5.07
2019-05-19T11:25:33.336Z,5.70
2019-05-19T11:27:52.495Z,5.17
2019-05-19T11:30:20.966Z,4.93
2019-05-19T11:32:49.370Z,5.20
2019-05-19T11:35:19.484Z,4.97
2019-05-19T11:37:47.929Z,4.90
2019-05-19T11:40:16.310Z,5.17
2019-05-19T11:42:46.834Z,5.00
2019-05-19T11:45:14.902Z,5.07
2019-05-19T11:47:43.325Z,5.00
2019-05-19T11:50:11.719Z,5.10
2019-05-19T11:52:40.147Z,4.97
2019-05-19T11:55:08.606Z,5.27
2019-05-19T11:57:37.012Z,5.10
2019-05-19T12:00:06.619Z,5.00
2019-05-19T12:02:35.065Z,5.10
2019-05-19T12:05:04.247Z,4.80
2019-05-19T12:07:32.707Z,5.13
2019-05-19T12:10:01.190Z,5.10
2019-05-19T12:12:29.572Z,5.43
2019-05-19T12:14:57.960Z,5.87
2019-05-19T12:17:26.385Z,5.77
2019-05-19T12:19:54.755Z,5.80
2019-05-19T12:22:23.164Z,5.77
2019-05-19T12:24:51.601Z,6.37
2019-05-19T12:27:19.986Z,6.80
2019-05-19T12:29:48.407Z,7.30
2019-05-19T12:32:16.834Z,6.20
2019-05-19T12:34:45.285Z,6.43
2019-05-19T12:37:13.682Z,6.37
2019-05-19T12:39:42.092Z,6.93
2019-05-19T12:42:10.507Z,6.30
2019-05-19T12:44:38.940Z,5.87
2019-05-19T12:47:07.344Z,5.80
2019-05-19T12:49:35.767Z,6.30
2019-05-19T12:52:04.183Z,6.50
2019-05-19T12:54:32.636Z,6.37
2019-05-19T12:57:01.013Z,6.23
2019-05-19T12:59:29.442Z,6.03
2019-05-19T13:01:57.904Z,5.40
2019-05-19T13:04:26.277Z,5.00
2019-05-19T13:06:54.705Z,5.80
2019-05-19T13:09:23.087Z,5.43
2019-05-19T13:11:51.526Z,5.90
2019-05-19T13:14:20.057Z,5.07
2019-05-19T13:16:48.446Z,5.43
2019-05-19T13:19:16.869Z,5.00
2019-05-19T13:21:45.242Z,5.63
2019-05-19T13:24:13.645Z,5.30
2019-05-19T13:26:55.546Z,4.72
2019-05-19T13:29:12.103Z,5.15
2019-05-19T13:31:40.489Z,4.95
2019-05-19T13:34:08.885Z,4.20
2019-05-19T13:36:40.180Z,5.03
2019-05-19T13:39:07.533Z,5.20
2019-05-19T13:41:35.911Z,4.92
2019-05-19T13:44:04.392Z,4.90
2019-05-19T13:46:32.852Z,4.63
2019-05-19T13:49:01.239Z,4.63
2019-05-19T13:51:29.622Z,4.67
2019-05-19T13:53:58.037Z,4.60
2019-05-19T13:56:26.415Z,3.90
2019-05-19T13:58:54.795Z,4.50
2019-05-19T14:01:28.742Z,4.15
2019-05-19T14:03:53.271Z,3.90
2019-05-19T14:06:21.649Z,3.83
2019-05-19T14:08:50.075Z,3.60
2019-05-19T14:11:18.515Z,3.58
2019-05-19T14:13:46.908Z,7.25
2019-05-19T14:16:15.348Z,3.33
2019-05-19T14:18:43.731Z,3.40
2019-05-19T14:21:12.128Z,3.47
2019-05-19T14:23:40.596Z,3.20
2019-05-19T14:26:09.175Z,3.42
2019-05-19T14:28:37.563Z,3.05
2019-05-19T14:31:06.006Z,3.20
2019-05-19T14:33:34.402Z,3.92
2019-05-19T14:36:02.827Z,3.20
2019-05-19T14:38:31.188Z,3.37
2019-05-19T14:41:01.222Z,3.33
2019-05-19T14:43:31.031Z,3.17
2019-05-19T14:45:59.465Z,3.55
2019-05-19T14:48:27.874Z,3.40
2019-05-19T14:50:56.259Z,3.33
2019-05-19T14:53:24.810Z,3.60
2019-05-19T14:55:54.764Z,3.67
2019-05-19T14:58:24.995Z,3.77
2019-05-19T15:00:56.069Z,4.47
2019-05-19T15:03:24.510Z,4.45
2019-05-19T15:05:52.952Z,4.60
2019-05-19T15:08:21.345Z,4.95
2019-05-19T15:10:49.731Z,4.85
2019-05-19T15:13:22.547Z,5.62
2019-05-19T15:15:57.935Z,5.62
2019-05-19T15:18:24.640Z,5.95
2019-05-19T15:20:53.027Z,6.40
2019-05-19T15:23:21.433Z,6.03
2019-05-19T15:25:49.854Z,6.28
2019-05-19T15:28:18.305Z,6.20
2019-05-19T15:30:46.683Z,6.37
2019-05-19T15:33:17.831Z,6.67
2019-05-19T15:35:46.247Z,6.67
2019-05-19T15:38:14.627Z,6.87
2019-05-19T15:40:43.046Z,6.80
2019-05-19T15:43:11.427Z,7.92
2019-05-19T15:45:39.842Z,7.03
2019-05-19T15:48:08.280Z,7.33
2019-05-19T15:50:36.659Z,6.47
2019-05-19T15:53:05.049Z,6.30
2019-05-19T15:55:33.480Z,6.53
2019-05-19T15:58:15.616Z,6.03
2019-05-19T16:00:31.891Z,6.10
2019-05-19T16:03:00.279Z,5.53
2019-05-19T16:05:28.676Z,5.53
2019-05-19T16:07:57.139Z,6.00
2019-05-19T16:10:25.635Z,6.40
2019-05-19T16:12:54.034Z,5.73
2019-05-19T16:15:22.538Z,5.90
2019-05-19T16:17:50.947Z,5.77
2019-05-19T16:20:19.435Z,5.60
2019-05-19T16:22:47.779Z,6.50
2019-05-19T16:25:16.444Z,6.03
2019-05-19T16:27:44.989Z,5.90
2019-05-19T16:30:13.468Z,5.83
2019-05-19T16:32:41.849Z,6.47
2019-05-19T16:35:10.629Z,7.10
2019-05-19T16:37:39.103Z,5.83
2019-05-19T16:40:07.520Z,5.53
2019-05-19T16:42:35.923Z,5.60
2019-05-19T16:45:07.467Z,5.17
2019-05-19T16:47:36.058Z,5.17
2019-05-19T16:50:05.905Z,6.03
2019-05-19T16:52:34.879Z,5.80
2019-05-19T16:55:20.741Z,6.03
2019-05-19T16:57:49.120Z,5.93
2019-05-19T17:00:17.665Z,6.03
2019-05-19T17:02:46.106Z,5.90
2019-05-19T17:05:17.369Z,7.50
2019-05-19T17:07:45.830Z,6.17
2019-05-19T17:10:14.467Z,5.47
2019-05-19T17:12:43.207Z,5.67
2019-05-19T17:15:11.614Z,6.27
2019-05-19T17:17:40.149Z,6.30
2019-05-19T17:20:08.527Z,6.47
2019-05-19T17:22:36.915Z,6.30
2019-05-19T17:25:06.576Z,5.73
2019-05-19T17:27:34.965Z,6.60
2019-05-19T17:30:05.379Z,6.47
2019-05-19T17:32:33.763Z,6.00
2019-05-19T17:35:02.195Z,6.00
2019-05-19T17:37:30.589Z,6.63
2019-05-19T17:39:58.963Z,6.10
2019-05-19T17:42:27.422Z,7.00
2019-05-19T17:44:55.805Z,6.63
2019-05-19T17:47:24.227Z,6.30
2019-05-19T17:49:52.807Z,5.87
2019-05-19T17:52:21.339Z,6.60
2019-05-19T17:54:49.731Z,6.33
2019-05-19T17:57:18.190Z,6.70
2019-05-19T17:59:48.122Z,7.40
2019-05-19T18:02:16.540Z,6.80
2019-05-19T18:04:44.951Z,6.87
2019-05-19T18:07:13.379Z,6.57
2019-05-19T18:09:41.783Z,7.37
2019-05-19T18:12:10.199Z,7.23
2019-05-19T18:14:38.608Z,7.87
2019-05-19T18:17:07.119Z,7.40
2019-05-19T18:19:35.547Z,8.13
2019-05-19T18:22:03.969Z,8.07
2019-05-19T18:24:32.351Z,7.97
2019-05-19T18:27:01.220Z,8.20
2019-05-19T18:29:31.666Z,8.77
2019-05-19T18:31:59.592Z,7.80
2019-05-19T18:34:28.081Z,8.23
2019-05-19T18:36:56.473Z,8.53
2019-05-19T18:39:24.894Z,8.47
2019-05-19T18:41:53.300Z,9.03
2019-05-19T18:44:21.701Z,8.60
2019-05-19T18:46:50.139Z,8.20
2019-05-19T18:49:18.571Z,9.60
2019-05-19T18:51:46.986Z,9.13
2019-05-19T18:54:15.388Z,9.50
2019-05-19T18:56:43.804Z,9.20
2019-05-19T18:59:12.175Z,8.60
2019-05-19T19:01:40.586Z,9.10
2019-05-19T19:04:09.036Z,8.60
2019-05-19T19:06:37.430Z,9.13
2019-05-19T19:09:06.283Z,9.90
2019-05-19T19:11:34.783Z,9.13
2019-05-19T19:14:04.091Z,9.50
2019-05-19T19:16:32.633Z,8.87
2019-05-19T19:19:01.046Z,10.10
2019-05-19T19:21:29.441Z,9.57
2019-05-19T19:23:57.947Z,10.17
2019-05-19T19:26:26.400Z,10.13
2019-05-19T19:28:54.858Z,9.77
2019-05-19T19:31:23.320Z,10.97
2019-05-19T19:33:51.734Z,11.67
2019-05-19T19:36:20.136Z,11.33
2019-05-19T19:38:48.536Z,9.80
2019-05-19T19:41:16.929Z,11.07
2019-05-19T19:43:45.386Z,9.67
2019-05-19T19:46:13.765Z,9.87
2019-05-19T19:48:42.206Z,10.20
2019-05-19T19:51:10.574Z,9.37
2019-05-19T19:53:38.947Z,10.57
2019-05-19T19:56:07.393Z,10.43
2019-05-19T19:58:35.822Z,10.90
2019-05-19T20:01:04.224Z,11.33
2019-05-19T20:03:32.760Z,11.60
2019-05-19T20:06:01.133Z,11.50
2019-05-19T20:08:29.527Z,12.10
2019-05-19T20:10:57.928Z,10.43
2019-05-19T20:13:26.325Z,11.23
2019-05-19T20:15:54.725Z,11.60
2019-05-19T20:18:23.169Z,12.30
2019-05-19T20:20:51.558Z,12.77
2019-05-19T20:23:20.036Z,13.20
2019-05-19T20:25:48.449Z,12.83
2019-05-19T20:28:16.838Z,12.57
2019-05-19T20:30:45.222Z,12.30
2019-05-19T20:33:13.663Z,11.77
2019-05-19T20:35:42.036Z,12.80
2019-05-19T20:38:10.486Z,12.50
2019-05-19T20:40:38.864Z,11.73
2019-05-19T20:43:07.276Z,10.50
2019-05-19T20:45:35.754Z,11.70
2019-05-19T20:48:04.126Z,12.77
2019-05-19T20:50:32.545Z,10.60
2019-05-19T20:53:00.990Z,10.33
2019-05-19T20:55:29.387Z,9.67
2019-05-19T20:57:57.873Z,9.73
2019-05-19T21:00:26.543Z,9.87
2019-05-19T21:02:54.956Z,9.13
2019-05-19T21:05:23.436Z,10.07
2019-05-19T21:07:51.907Z,9.40
2019-05-19T21:10:20.324Z,11.00
2019-05-19T21:12:48.781Z,10.10
2019-05-19T21:15:17.230Z,9.60
2019-05-19T21:17:45.634Z,11.93
2019-05-19T21:20:14.176Z,9.63
2019-05-19T21:22:42.716Z,8.30
2019-05-19T21:25:11.093Z,9.60
2019-05-19T21:27:39.638Z,9.93
2019-05-19T21:30:08.051Z,9.47
2019-05-19T21:32:36.433Z,9.77
2019-05-19T21:35:06.136Z,9.50
2019-05-19T21:37:34.529Z,9.10
2019-05-19T21:40:02.995Z,9.20
2019-05-19T21:42:31.412Z,8.90
2019-05-19T21:44:59.796Z,8.57
2019-05-19T21:47:28.175Z,8.80
2019-05-19T21:49:56.696Z,8.90
2019-05-19T21:52:25.087Z,7.80
2019-05-19T21:54:53.468Z,8.77
2019-05-19T21:57:21.850Z,9.30
2019-05-19T21:59:50.520Z,8.23
2019-05-19T22:02:18.908Z,8.77
2019-05-19T22:04:47.371Z,8.20
2019-05-19T22:07:17.416Z,8.30
2019-05-19T22:09:45.867Z,7.93
2019-05-19T22:12:14.271Z,8.97
2019-05-19T22:14:42.685Z,7.80
2019-05-19T22:17:11.127Z,7.87
2019-05-19T22:19:39.636Z,7.50
2019-05-19T22:22:08.040Z,8.47
2019-05-19T22:24:36.489Z,7.93
2019-05-19T22:27:04.866Z,7.77
2019-05-19T22:29:33.460Z,8.27
2019-05-19T22:32:02.083Z,7.50
2019-05-19T22:34:30.436Z,8.30
2019-05-19T22:36:58.853Z,8.23
2019-05-19T22:39:27.367Z,8.10
2019-05-19T22:41:55.745Z,8.23
2019-05-19T22:44:24.166Z,7.33
2019-05-19T22:46:52.543Z,8.33
2019-05-19T22:49:20.926Z,8.03
2019-05-19T22:51:49.312Z,7.87
2019-05-19T22:54:17.668Z,8.33
2019-05-19T22:56:46.078Z,8.30
2019-05-19T22:59:19.826Z,7.93
2019-05-19T23:01:51.721Z,7.70
2019-05-19T23:04:14.621Z,7.73
2019-05-19T23:06:43.040Z,7.30
2019-05-19T23:09:11.424Z,7.50
2019-05-19T23:11:39.788Z,8.03
2019-05-19T23:14:08.271Z,7.73
2019-05-19T23:16:36.650Z,8.10
2019-05-19T23:19:05.027Z,7.77
2019-05-19T23:21:34.523Z,6.90
2019-05-19T23:24:03.356Z,7.90
2019-05-19T23:26:31.840Z,7.90
2019-05-19T23:29:00.262Z,7.67
2019-05-19T23:31:28.712Z,8.60
2019-05-19T23:34:00.536Z,7.70
2019-05-19T23:36:28.846Z,8.47
2019-05-19T23:38:57.234Z,8.30
2019-05-19T23:41:25.662Z,7.63
2019-05-19T23:43:54.040Z,8.20
2019-05-19T23:46:22.417Z,8.10
2019-05-19T23:48:50.832Z,7.20
2019-05-19T23:51:19.211Z,7.90
2019-05-19T23:53:47.623Z,7.80
2019-05-19T23:56:15.930Z,7.63
2019-05-19T23:58:44.291Z,8.40
